Dati Storici

Data ora Umidita' aria (%) Temperatura aria (°C) Rad globale (W/m²) Gonioanemometro (°) Tacoanemometro (m/s) Pioggia (mm)
07-11-2012 08:10 77.8 % 6.458 26.15 332.558 1.039 0
07-11-2012 08:00 79 % 6.206 5.965 289.354 1.159 0
07-11-2012 07:50 79.1 % 6 2.993 0.986 0.798 0
07-11-2012 07:40 78.9 % 6.223 1.723 29.32 0.727 0
07-11-2012 07:30 78.2 % 6.3 1.441 27.99 0.387 0
07-11-2012 07:20 78.7 % 6.311 0.996 17.3 1.963 0
07-11-2012 07:10 78.8 % 6.398 1.15 6.118 1.155 0
07-11-2012 07:00 78.9 % 6.267 1.252 16.188 0.954 0
07-11-2012 06:50 78.3 % 6.241 1.894 5.594 2.23 0
07-11-2012 06:40 77.7 % 6.418 1.384 3.789 2.553 0
07-11-2012 06:30 77.4 % 6.578 1.243 32.607 1.691 0
07-11-2012 06:20 77 % 6.712 1.269 28.966 2.57 0
07-11-2012 06:10 76.6 % 6.838 0.935 3.228 1.89 0
07-11-2012 06:00 75.8 % 7.016 1.32 327.014 1.084 0
07-11-2012 05:50 75.4 % 7.121 1.462 17.825 1.385 0
07-11-2012 05:40 75.1 % 7.332 1.474 1.329 1.547 0
07-11-2012 05:30 74.9 % 7.27 1.307 22.189 1.779 0
07-11-2012 05:20 74.2 % 7.511 1.346 348.705 1.68 0
07-11-2012 05:10 73.5 % 7.731 1.538 1.292 1.973 0
07-11-2012 05:00 73.1 % 7.888 1.487 20.242 1.693 0

I dati sono presentati in modo automatico a scopo informativo. In seguito a verifica i dati possono subire modifiche o essere invalidati e non riportati negli archivi definitivi.